Terminal Aerodrome Forecast
Issued by NWS Sioux Falls, SD

Home | Current Version | Previous Version | Graphics & Text | Print | Product List | Glossary Off
Versions: 1 2 3 4 5 6 7 8 9 10 11 12 13 14 15 16 17 18 19 20 21

174
FTUS43 KFSD 231527 AAB
TAFHON
TAF AMD
KHON 231527Z 2315/2412 36007KT P6SM -SHRA VCTS OVC008CB
     FM231900 02006KT 6SM SHRA OVC010
     FM232200 05008KT 6SM SHRA OVC010
     FM240500 08007KT 5SM SHRA OVC009=

USA.gov is the U.S. government's official web portal to all federal, state and local government web resources and services.